Helen Laraway — WDH3753 — position and weather

sailwx.info

Track history (hours):
 
Tides and Currents Weather Stations Pressure Air Temp Water Temp Dewpoint Dewpoint Depression Visibility Wind Speed Wind Dir Waves Ship Positions

Helen Laraway

Owner: Coeymans Marine Towing, LLC, Syosset, NY. More information available from US FCC via Universal Licensing System and Coast Guard Vessel Documentation Center.

Last reported at 2018-Mar-08 22:15 UTC. Time now 2018-Jun-20 12:48 UTC.
Position N 41°01' W 073°53'.
Warning: this ship's position is months out of date.

Length 23 m; draft 3 m.

Type: Tug. MMSI: 367610540.

Date/timePositionNaut miles runAvg speedWind from/ knotsBaromVisibWave heightAir tempDewpointWater temp
2018-Mar-08 22:15N 41°01' W 073°53'2 3.4
2018-Mar-08 21:46N 40°59' W 073°54'1 3.6
2018-Mar-08 21:29N 40°58' W 073°54'2 3.9
2018-Mar-08 20:59N 40°56' W 073°54'2 4.0
2018-Mar-08 20:30N 40°55' W 073°55'  
2018-Mar-02 05:32N 40°58' W 073°54'0 3.7
2018-Mar-02 05:27N 40°58' W 073°54'2 3.7
2018-Mar-02 04:59N 40°56' W 073°55'2 4.5
2018-Mar-02 04:30N 40°54' W 073°55'2 4.9
2018-Mar-02 04:00N 40°52' W 073°56'3 5.5
2018-Mar-02 03:30N 40°49' W 073°58'3 6.1
2018-Mar-02 02:59N 40°47' W 073°60'3 6.1
2018-Mar-02 02:30N 40°44' W 074°01'3 5.9
2018-Mar-02 02:00N 40°41' W 074°02'1 2.3
2018-Mar-02 01:30N 40°40' W 074°03'0 0.2
2018-Mar-02 01:00N 40°40' W 074°03'0 0.4
2018-Mar-02 00:30N 40°40' W 074°03'1 2.4
2018-Mar-02 00:00N 40°40' W 074°02'1 1.8
2018-Mar-01 23:30N 40°40' W 074°01'0 0.0
2018-Mar-01 23:00N 40°40' W 074°01'0 0.0
2018-Mar-01 22:30N 40°40' W 074°01'0 0.0
2018-Mar-01 22:00N 40°40' W 074°01'0 0.0
2018-Mar-01 21:30N 40°40' W 074°01'0 0.0
2018-Mar-01 21:00N 40°40' W 074°01'0 0.0
2018-Mar-01 20:30N 40°40' W 074°01'1 1.8
2018-Mar-01 20:00N 40°40' W 074°02'1 2.1
2018-Mar-01 19:30N 40°40' W 074°03'4 7.7
2018-Mar-01 19:00N 40°39' W 074°08'1 1.1
2018-Mar-01 18:30N 40°38' W 074°09'0 0.0
2018-Mar-01 18:00N 40°38' W 074°09'0 0.0
2018-Mar-01 17:30N 40°38' W 074°09'0 0.0
2018-Mar-01 17:00N 40°38' W 074°09'0 0.0
2018-Mar-01 16:30N 40°38' W 074°09'1 1.1
2018-Mar-01 16:00N 40°39' W 074°08'1 2.3
2018-Mar-01 15:30N 40°39' W 074°07'0 0.0
2018-Mar-01 15:00N 40°39' W 074°07'0 0.0
2018-Mar-01 14:30N 40°39' W 074°07'0 0.0
2018-Mar-01 14:00N 40°39' W 074°07'2 4.4
2018-Mar-01 13:30N 40°40' W 074°04'3 5.9
2018-Mar-01 13:00N 40°41' W 074°01'2 4.3
2018-Mar-01 12:30N 40°43' W 073°59'2 4.2
2018-Mar-01 12:00N 40°44' W 073°57'0 0.1
2018-Mar-01 11:30N 40°44' W 073°57'1 2.5
2018-Mar-01 11:00N 40°43' W 073°58'5 9.2
2018-Mar-01 10:30N 40°40' W 074°02'0 0.2
2018-Mar-01 10:00N 40°40' W 074°02'1 2.6
2018-Mar-01 09:30N 40°40' W 074°03'1 2.2
2018-Mar-01 09:00N 40°41' W 074°02'3 5.3
2018-Mar-01 08:30N 40°42' W 073°60'3 4.9
2018-Mar-01 07:58N 40°44' W 073°57'0 0.9
2018-Mar-01 07:30N 40°44' W 073°57'1 1.5
2018-Mar-01 07:00N 40°44' W 073°58'4 7.8
2018-Mar-01 06:30N 40°48' W 073°55'4 7.2
2018-Mar-01 06:00N 40°48' W 073°50'3 6.0
2018-Mar-01 05:30N 40°50' W 073°47'5 0.3
2018-Feb-28 15:09N 40°53' W 073°43'2 6.0
2018-Feb-28 14:52N 40°52' W 073°44'3 6.0
2018-Feb-28 14:26N 40°50' W 073°46'2 5.0
2018-Feb-28 14:00N 40°48' W 073°48'3 6.1
2018-Feb-28 13:29N 40°48' W 073°52'3 6.0
2018-Feb-28 13:00N 40°47' W 073°55'2 4.4
2018-Feb-28 12:30N 40°45' W 073°58'3 6.4
2018-Feb-28 12:00N 40°42' W 073°59'3 6.8
2018-Feb-28 11:30N 40°40' W 074°02'1 1.2
2018-Feb-28 11:00N 40°39' W 074°02'0 0.5
2018-Feb-28 10:30N 40°40' W 074°02'1 1.1
2018-Feb-28 10:00N 40°40' W 074°03'4 8.2
2018-Feb-28 09:30N 40°39' W 074°08'1 1.5
2018-Feb-28 09:00N 40°38' W 074°09'0 0.1
2018-Feb-28 08:30N 40°38' W 074°09'0 0.0
2018-Feb-28 08:00N 40°38' W 074°09'0 0.0
2018-Feb-28 07:30N 40°38' W 074°09'4 7.5
2018-Feb-28 07:00N 40°40' W 074°04'2 3.8
2018-Feb-28 06:30N 40°40' W 074°02'0 0.3
2018-Feb-28 06:00N 40°40' W 074°02'2 4.6
2018-Feb-28 05:30N 40°42' W 074°01'4 8.1
2018-Feb-28 05:00N 40°46' W 074°00'4 7.9
2018-Feb-28 04:30N 40°50' W 073°58'4 7.3
2018-Feb-28 04:00N 40°53' W 073°56'3 6.4
2018-Feb-28 03:30N 40°56' W 073°55'  
Track history (hours):
 
Tides and Currents Weather Stations Pressure Air Temp Water Temp Dewpoint Dewpoint Depression Visibility Wind Speed Wind Dir Waves Ship Positions

Helen Laraway

Owner: Coeymans Marine Towing, LLC, Syosset, NY. More information available from US FCC via Universal Licensing System and Coast Guard Vessel Documentation Center.

Last reported at 2018-Mar-08 22:15 UTC. Time now 2018-Jun-20 12:48 UTC.
Position N 41°01' W 073°53'.
Warning: this ship's position is months out of date.

Length 23 m; draft 3 m.

Type: Tug. MMSI: 367610540.

Date/timePositionNaut miles runAvg speedWind from/ knotsBaromVisibWave heightAir tempDewpointWater temp
2018-Mar-08 22:15N 41°01' W 073°53'2 3.4
2018-Mar-08 21:46N 40°59' W 073°54'1 3.6
2018-Mar-08 21:29N 40°58' W 073°54'2 3.9
2018-Mar-08 20:59N 40°56' W 073°54'2 4.0
2018-Mar-08 20:30N 40°55' W 073°55'  
2018-Mar-02 05:32N 40°58' W 073°54'0 3.7
2018-Mar-02 05:27N 40°58' W 073°54'2 3.7
2018-Mar-02 04:59N 40°56' W 073°55'2 4.5
2018-Mar-02 04:30N 40°54' W 073°55'2 4.9
2018-Mar-02 04:00N 40°52' W 073°56'3 5.5
2018-Mar-02 03:30N 40°49' W 073°58'3 6.1
2018-Mar-02 02:59N 40°47' W 073°60'3 6.1
2018-Mar-02 02:30N 40°44' W 074°01'3 5.9
2018-Mar-02 02:00N 40°41' W 074°02'1 2.3
2018-Mar-02 01:30N 40°40' W 074°03'0 0.2
2018-Mar-02 01:00N 40°40' W 074°03'0 0.4
2018-Mar-02 00:30N 40°40' W 074°03'1 2.4
2018-Mar-02 00:00N 40°40' W 074°02'1 1.8
2018-Mar-01 23:30N 40°40' W 074°01'0 0.0
2018-Mar-01 23:00N 40°40' W 074°01'0 0.0
2018-Mar-01 22:30N 40°40' W 074°01'0 0.0
2018-Mar-01 22:00N 40°40' W 074°01'0 0.0
2018-Mar-01 21:30N 40°40' W 074°01'0 0.0
2018-Mar-01 21:00N 40°40' W 074°01'0 0.0
2018-Mar-01 20:30N 40°40' W 074°01'1 1.8
2018-Mar-01 20:00N 40°40' W 074°02'1 2.1
2018-Mar-01 19:30N 40°40' W 074°03'4 7.7
2018-Mar-01 19:00N 40°39' W 074°08'1 1.1
2018-Mar-01 18:30N 40°38' W 074°09'0 0.0
2018-Mar-01 18:00N 40°38' W 074°09'0 0.0
2018-Mar-01 17:30N 40°38' W 074°09'0 0.0
2018-Mar-01 17:00N 40°38' W 074°09'0 0.0
2018-Mar-01 16:30N 40°38' W 074°09'1 1.1
2018-Mar-01 16:00N 40°39' W 074°08'1 2.3
2018-Mar-01 15:30N 40°39' W 074°07'0 0.0
2018-Mar-01 15:00N 40°39' W 074°07'0 0.0
2018-Mar-01 14:30N 40°39' W 074°07'0 0.0
2018-Mar-01 14:00N 40°39' W 074°07'2 4.4
2018-Mar-01 13:30N 40°40' W 074°04'3 5.9
2018-Mar-01 13:00N 40°41' W 074°01'2 4.3
2018-Mar-01 12:30N 40°43' W 073°59'2 4.2
2018-Mar-01 12:00N 40°44' W 073°57'0 0.1
2018-Mar-01 11:30N 40°44' W 073°57'1 2.5
2018-Mar-01 11:00N 40°43' W 073°58'5 9.2
2018-Mar-01 10:30N 40°40' W 074°02'0 0.2
2018-Mar-01 10:00N 40°40' W 074°02'1 2.6
2018-Mar-01 09:30N 40°40' W 074°03'1 2.2
2018-Mar-01 09:00N 40°41' W 074°02'3 5.3
2018-Mar-01 08:30N 40°42' W 073°60'3 4.9
2018-Mar-01 07:58N 40°44' W 073°57'0 0.9
2018-Mar-01 07:30N 40°44' W 073°57'1 1.5
2018-Mar-01 07:00N 40°44' W 073°58'4 7.8
2018-Mar-01 06:30N 40°48' W 073°55'4 7.2
2018-Mar-01 06:00N 40°48' W 073°50'3 6.0
2018-Mar-01 05:30N 40°50' W 073°47'5 0.3
2018-Feb-28 15:09N 40°53' W 073°43'2 6.0
2018-Feb-28 14:52N 40°52' W 073°44'3 6.0
2018-Feb-28 14:26N 40°50' W 073°46'2 5.0
2018-Feb-28 14:00N 40°48' W 073°48'3 6.1
2018-Feb-28 13:29N 40°48' W 073°52'3 6.0
2018-Feb-28 13:00N 40°47' W 073°55'2 4.4
2018-Feb-28 12:30N 40°45' W 073°58'3 6.4
2018-Feb-28 12:00N 40°42' W 073°59'3 6.8
2018-Feb-28 11:30N 40°40' W 074°02'1 1.2
2018-Feb-28 11:00N 40°39' W 074°02'0 0.5
2018-Feb-28 10:30N 40°40' W 074°02'1 1.1
2018-Feb-28 10:00N 40°40' W 074°03'4 8.2
2018-Feb-28 09:30N 40°39' W 074°08'1 1.5
2018-Feb-28 09:00N 40°38' W 074°09'0 0.1
2018-Feb-28 08:30N 40°38' W 074°09'0 0.0
2018-Feb-28 08:00N 40°38' W 074°09'0 0.0
2018-Feb-28 07:30N 40°38' W 074°09'4 7.5
2018-Feb-28 07:00N 40°40' W 074°04'2 3.8
2018-Feb-28 06:30N 40°40' W 074°02'0 0.3
2018-Feb-28 06:00N 40°40' W 074°02'2 4.6
2018-Feb-28 05:30N 40°42' W 074°01'4 8.1
2018-Feb-28 05:00N 40°46' W 074°00'4 7.9
2018-Feb-28 04:30N 40°50' W 073°58'4 7.3
2018-Feb-28 04:00N 40°53' W 073°56'3 6.4
2018-Feb-28 03:30N 40°56' W 073°55'  

Dump ship's entire track history